To NAV CANADA Home Page Login to a new session Search on AWWS site Feedback and Comments Disclaimer Vers la page française équivalente Tips FAQ What's new on the site To the Forecasts and Observations / NOTAM section To "File a Flight Plan" website Publications and other links Update of the User's profile FIC Telephone Numbers My Weather Data Folder Route Weather Data Regional Weather Data Local Weather Data To the Forecasts and Observations / NOTAM section
Request Generated 05/27/2015 at 13:29:40 UTC . Weather information available at that time is displayed.

METAR/TAF

MONTREAL/PIERRE-ELLIOTT-TRUDEAU INTL/QC    

METAR CYUL 271300Z 19010G17KT 15SM FEW055TCU SCT080 BKN130 25/19
A2995 RMK TCU1ACC3AC3 SLP142 DENSITY ALT 1300FT=
METAR CYUL 271200Z 16009KT 15SM FEW025 FEW120 BKN240 25/19 A2995 RMK
CU1AC1CI6 CU TR AC TR SLP142 DENSITY ALT 1200FT=
METAR CYUL 271100Z 16010KT 15SM FEW035TCU FEW090 BKN240 23/18 A2996
RMK TCU1AC1CI6 TCU TR SLP146 DENSITY ALT 1000FT=

TAF CYUL 271138Z 2712/2812 16008KT P6SM FEW040 SCT100
BECMG 2712/2713 20010KT
FM271400 22015G25KT P6SM BKN030 BKN080 TEMPO 2714/2716 P6SM -SHRA
FM271600 23018G28KT P6SM -SHRA BKN025 OVC070 PROB30 2716/2720
VRB20G35KT 11/2SM TSRA BR BKN015 OVC050CB
FM272000 24018G28KT P6SM BKN040
BECMG 2723/2801 22010KT
FM280800 23012KT P6SM -SHRA FEW020 OVC040
FM281000 23012G22KT P6SM -SHRA BKN015 OVC030
RMK NXT FCST BY 271500Z=
Your time UTC time
Weather data provided by Environment Canada and NAV CANADA